Sankoumaru 31 — JD2200 — position and weather

sailwx.info

Track history (hours):
 
Tides and Currents Weather Stations Pressure Air Temp Water Temp Dewpoint Dewpoint Depression Visibility Wind Speed Wind Dir Waves Ship Positions

Sankoumaru 31

Last reported at 2017-Jan-16 19:29 UTC. Time now 2017-Jan-18 18:20 UTC.
Position N 35°06' E 139°40'.

Length 75 m; draft 5 m.

Type: Cargo ship. MMSI: 431501842.

Date/timePositionNaut miles runAvg speedWind from/ knotsBaromVisibWave heightAir tempDewpointWater temp
2017-Jan-16 19:29N 35°06' E 139°40'1111.4
2017-Jan-16 18:33N 35°16' E 139°46'10 9.6
2017-Jan-16 17:34N 35°26' E 139°46'7 6.5
2017-Jan-16 16:31N 35°22' E 139°53'0 0.0
2017-Jan-16 14:06N 35°22' E 139°53'0 0.1
2017-Jan-16 13:13N 35°22' E 139°53'0 0.0
2017-Jan-16 10:21N 35°22' E 139°53'0 0.1
2017-Jan-16 09:31N 35°22' E 139°53'0 0.1
2017-Jan-16 08:33N 35°22' E 139°53'0 0.0
2017-Jan-16 05:17N 35°22' E 139°53'0 0.0
2017-Jan-16 04:29N 35°22' E 139°53'0 0.1
2017-Jan-16 03:33N 35°22' E 139°53'0 0.0
2017-Jan-16 02:34N 35°22' E 139°53'0 0.0
2017-Jan-15 02:33N 35°22' E 139°54'1 0.6
2017-Jan-15 01:19N 35°22' E 139°53'0 0.1
2017-Jan-15 00:31N 35°22' E 139°53'0 0.0
2017-Jan-14 22:31N 35°22' E 139°53'0 0.0
2017-Jan-14 21:28N 35°22' E 139°53'0 0.0
2017-Jan-14 20:13N 35°22' E 139°53'0 0.0
2017-Jan-14 19:22N 35°22' E 139°53'0 0.0
2017-Jan-14 18:31N 35°22' E 139°53'0 0.0
2017-Jan-14 17:31N 35°22' E 139°53'0 0.0
2017-Jan-14 16:28N 35°22' E 139°53'0 0.0
2017-Jan-14 15:28N 35°22' E 139°53'0 0.0
2017-Jan-14 14:28N 35°22' E 139°53'0 0.0
2017-Jan-14 13:31N 35°22' E 139°53'0 0.0
2017-Jan-14 12:31N 35°22' E 139°53'0 0.0
2017-Jan-14 11:07N 35°22' E 139°53'0 0.0
2017-Jan-14 10:25N 35°22' E 139°53'0 0.1
2017-Jan-14 09:28N 35°22' E 139°53'0 0.0
2017-Jan-14 08:28N 35°22' E 139°53'0 0.0
2017-Jan-14 07:31N 35°22' E 139°53'0 0.0
2017-Jan-14 06:28N 35°22' E 139°53'0 0.0
2017-Jan-14 05:31N 35°22' E 139°53'0 0.0
2017-Jan-14 04:22N 35°22' E 139°53'0 0.0
2017-Jan-14 03:22N 35°22' E 139°53'0 0.0
2017-Jan-13 22:25N 35°22' E 139°53'0 0.0
2017-Jan-13 21:13N 35°22' E 139°53'0 0.1
2017-Jan-13 20:19N 35°22' E 139°53'0 0.1
2017-Jan-13 19:10N 35°22' E 139°53'0 0.0
2017-Jan-13 16:28N 35°22' E 139°53'0 0.0
2017-Jan-13 14:10N 35°22' E 139°53'0 0.1
2017-Jan-13 13:31N 35°22' E 139°53'0 0.0
2017-Jan-13 12:28N 35°22' E 139°53'0 0.0
2017-Jan-13 11:31N 35°22' E 139°53'0 0.0
2017-Jan-13 10:33N 35°22' E 139°53'0 0.0
2017-Jan-13 08:33N 35°22' E 139°53'1 0.5
2017-Jan-13 07:30N 35°22' E 139°53'0 0.0
2017-Jan-13 06:30N 35°22' E 139°53'0 0.0
2017-Jan-13 05:24N 35°22' E 139°53'0 0.0
2017-Jan-13 04:30N 35°22' E 139°53'0 0.0
2017-Jan-13 03:30N 35°22' E 139°53'0 0.0
2017-Jan-13 02:30N 35°22' E 139°53'0 0.0
2017-Jan-13 00:33N 35°22' E 139°53'0 0.0
2017-Jan-12 23:30N 35°22' E 139°53'0 0.0
2017-Jan-12 22:30N 35°22' E 139°53'0 0.0
2017-Jan-12 21:21N 35°22' E 139°53'0 0.0
2017-Jan-12 20:30N 35°22' E 139°53'0 0.0
2017-Jan-12 19:30N 35°22' E 139°53'0 0.0
2017-Jan-12 18:30N 35°22' E 139°53'0 0.0
2017-Jan-12 17:30N 35°22' E 139°53'0 0.0
2017-Jan-12 16:33N 35°22' E 139°53'0 0.0
2017-Jan-12 15:33N 35°22' E 139°53'0 0.0
2017-Jan-12 14:33N 35°22' E 139°53'0 0.0
2017-Jan-12 13:33N 35°22' E 139°53'0 0.0
2017-Jan-12 12:33N 35°22' E 139°53'0 0.0
2017-Jan-12 11:30N 35°22' E 139°53'0 0.0
2017-Jan-12 10:30N 35°22' E 139°53'0 0.0
2017-Jan-12 06:23N 35°22' E 139°53'14 1.5
2017-Jan-11 21:27N 35°35' E 139°52'0 0.1
2017-Jan-11 20:23N 35°35' E 139°51'810.2
2017-Jan-11 19:33N 35°27' E 139°49'1111.0
2017-Jan-11 18:33N 35°16' E 139°46'  
2017-Jan-07 07:12N 35°03' E 139°44'811.6
2017-Jan-07 06:30N 35°11' E 139°46'1111.8
2017-Jan-07 05:33N 35°22' E 139°42'9 8.6
2017-Jan-07 04:33N 35°22' E 139°53'  
Track history (hours):
 
Tides and Currents Weather Stations Pressure Air Temp Water Temp Dewpoint Dewpoint Depression Visibility Wind Speed Wind Dir Waves Ship Positions

Sankoumaru 31

Last reported at 2017-Jan-16 19:29 UTC. Time now 2017-Jan-18 18:20 UTC.
Position N 35°06' E 139°40'.

Length 75 m; draft 5 m.

Type: Cargo ship. MMSI: 431501842.

Date/timePositionNaut miles runAvg speedWind from/ knotsBaromVisibWave heightAir tempDewpointWater temp
2017-Jan-16 19:29N 35°06' E 139°40'1111.4
2017-Jan-16 18:33N 35°16' E 139°46'10 9.6
2017-Jan-16 17:34N 35°26' E 139°46'7 6.5
2017-Jan-16 16:31N 35°22' E 139°53'0 0.0
2017-Jan-16 14:06N 35°22' E 139°53'0 0.1
2017-Jan-16 13:13N 35°22' E 139°53'0 0.0
2017-Jan-16 10:21N 35°22' E 139°53'0 0.1
2017-Jan-16 09:31N 35°22' E 139°53'0 0.1
2017-Jan-16 08:33N 35°22' E 139°53'0 0.0
2017-Jan-16 05:17N 35°22' E 139°53'0 0.0
2017-Jan-16 04:29N 35°22' E 139°53'0 0.1
2017-Jan-16 03:33N 35°22' E 139°53'0 0.0
2017-Jan-16 02:34N 35°22' E 139°53'0 0.0
2017-Jan-15 02:33N 35°22' E 139°54'1 0.6
2017-Jan-15 01:19N 35°22' E 139°53'0 0.1
2017-Jan-15 00:31N 35°22' E 139°53'0 0.0
2017-Jan-14 22:31N 35°22' E 139°53'0 0.0
2017-Jan-14 21:28N 35°22' E 139°53'0 0.0
2017-Jan-14 20:13N 35°22' E 139°53'0 0.0
2017-Jan-14 19:22N 35°22' E 139°53'0 0.0
2017-Jan-14 18:31N 35°22' E 139°53'0 0.0
2017-Jan-14 17:31N 35°22' E 139°53'0 0.0
2017-Jan-14 16:28N 35°22' E 139°53'0 0.0
2017-Jan-14 15:28N 35°22' E 139°53'0 0.0
2017-Jan-14 14:28N 35°22' E 139°53'0 0.0
2017-Jan-14 13:31N 35°22' E 139°53'0 0.0
2017-Jan-14 12:31N 35°22' E 139°53'0 0.0
2017-Jan-14 11:07N 35°22' E 139°53'0 0.0
2017-Jan-14 10:25N 35°22' E 139°53'0 0.1
2017-Jan-14 09:28N 35°22' E 139°53'0 0.0
2017-Jan-14 08:28N 35°22' E 139°53'0 0.0
2017-Jan-14 07:31N 35°22' E 139°53'0 0.0
2017-Jan-14 06:28N 35°22' E 139°53'0 0.0
2017-Jan-14 05:31N 35°22' E 139°53'0 0.0
2017-Jan-14 04:22N 35°22' E 139°53'0 0.0
2017-Jan-14 03:22N 35°22' E 139°53'0 0.0
2017-Jan-13 22:25N 35°22' E 139°53'0 0.0
2017-Jan-13 21:13N 35°22' E 139°53'0 0.1
2017-Jan-13 20:19N 35°22' E 139°53'0 0.1
2017-Jan-13 19:10N 35°22' E 139°53'0 0.0
2017-Jan-13 16:28N 35°22' E 139°53'0 0.0
2017-Jan-13 14:10N 35°22' E 139°53'0 0.1
2017-Jan-13 13:31N 35°22' E 139°53'0 0.0
2017-Jan-13 12:28N 35°22' E 139°53'0 0.0
2017-Jan-13 11:31N 35°22' E 139°53'0 0.0
2017-Jan-13 10:33N 35°22' E 139°53'0 0.0
2017-Jan-13 08:33N 35°22' E 139°53'1 0.5
2017-Jan-13 07:30N 35°22' E 139°53'0 0.0
2017-Jan-13 06:30N 35°22' E 139°53'0 0.0
2017-Jan-13 05:24N 35°22' E 139°53'0 0.0
2017-Jan-13 04:30N 35°22' E 139°53'0 0.0
2017-Jan-13 03:30N 35°22' E 139°53'0 0.0
2017-Jan-13 02:30N 35°22' E 139°53'0 0.0
2017-Jan-13 00:33N 35°22' E 139°53'0 0.0
2017-Jan-12 23:30N 35°22' E 139°53'0 0.0
2017-Jan-12 22:30N 35°22' E 139°53'0 0.0
2017-Jan-12 21:21N 35°22' E 139°53'0 0.0
2017-Jan-12 20:30N 35°22' E 139°53'0 0.0
2017-Jan-12 19:30N 35°22' E 139°53'0 0.0
2017-Jan-12 18:30N 35°22' E 139°53'0 0.0
2017-Jan-12 17:30N 35°22' E 139°53'0 0.0
2017-Jan-12 16:33N 35°22' E 139°53'0 0.0
2017-Jan-12 15:33N 35°22' E 139°53'0 0.0
2017-Jan-12 14:33N 35°22' E 139°53'0 0.0
2017-Jan-12 13:33N 35°22' E 139°53'0 0.0
2017-Jan-12 12:33N 35°22' E 139°53'0 0.0
2017-Jan-12 11:30N 35°22' E 139°53'0 0.0
2017-Jan-12 10:30N 35°22' E 139°53'0 0.0
2017-Jan-12 06:23N 35°22' E 139°53'14 1.5
2017-Jan-11 21:27N 35°35' E 139°52'0 0.1
2017-Jan-11 20:23N 35°35' E 139°51'810.2
2017-Jan-11 19:33N 35°27' E 139°49'1111.0
2017-Jan-11 18:33N 35°16' E 139°46'  
2017-Jan-07 07:12N 35°03' E 139°44'811.6
2017-Jan-07 06:30N 35°11' E 139°46'1111.8
2017-Jan-07 05:33N 35°22' E 139°42'9 8.6
2017-Jan-07 04:33N 35°22' E 139°53'  

Dump ship's entire track history